Airfield :
LOGIN :

Register | Disclaimer

   EN    FR    IT 

 










Legend :    VFR   Marginal VFR   IFR   Intensive IFR   Very Intensive IFR
Visi :
Ceiling :
>= 8 km
>= 3000ft
5 to 8 km
1000 to 3000 ft
1500m to 5 km
500 to 1000 ft
800 to 1500m
200 to 500 ft
< 800m
< 200 ft
Symbols :   Thunderstorms  Fog  Heavy snow  Heavy precipitations  Wind > 20 kt
SIGMETs :     Misc.  Thunderstorms  Icing  Turbulence  Mountain Waves  Volcanic Ashes






- Airport Elevation : 935 ft


EBFS - Florennes

CURRENT METAR :
  • 280255Z AUTO 19011KT 9000 -RA FEW004/// BKN006/// OVC009/// 06/05 Q1009 YLO

EXPIRED METARs :
  • 280251Z AUTO 19010KT 9999 -RA SCT005/// BKN008/// 06/05 Q1009 YLO
  • 280225Z AUTO 19010KT 9999 -RA FEW006/// SCT009/// BKN011/// 06/05 Q1009 GRN
  • 280155Z AUTO 19010KT 9999 -RA FEW011/// SCT014/// BKN020/// 06/05 Q1010 GRN
  • 272155Z AUTO 17008KT 9999 BKN060/// OVC160/// 07/04 Q1011 BLU
  • 280125Z AUTO 19008KT 7000 -RA FEW012/// SCT026/// BKN044/// 06/05 Q1010 WHT
  • 280052Z AUTO 18009KT 5000 -RA FEW014/// BKN034/// OVC100/// 06/05 Q1010 WHT
  • 280055Z AUTO 18008KT 9999 -RA FEW014/// SCT022/// BKN035/// 06/05 Q1010 WHT

Expired Forecast.



MET'MAP, your aeronautical weather chart ! - Copyright ORBIFLY December 2007 - Disclaimer

ORBIFLY MET'MAP TEAM :

Programming & Development : Alexandra Zaïnal
Original concept : Baudouin d'Aumeries
Technical & hardware support : Manuel Goepfert
Assistance : Marc-Olivier Méhu




SOURCES & CREDITS :

   NOAA